sensor_id;sensor_type;location;lat;lon;timestamp;P1;durP1;ratioP1;P2;durP2;ratioP2
12956;SDS011;6543;48.836;10.092;2022-12-07T00:01:29;11.70;;;9.70;;
12956;SDS011;6543;48.836;10.092;2022-12-07T00:03:57;10.17;;;9.17;;
12956;SDS011;6543;48.836;10.092;2022-12-07T00:06:29;10.77;;;9.70;;
12956;SDS011;6543;48.836;10.092;2022-12-07T00:08:58;10.30;;;9.33;;
12956;SDS011;6543;48.836;10.092;2022-12-07T00:11:25;10.93;;;9.87;;
12956;SDS011;6543;48.836;10.092;2022-12-07T00:13:52;10.27;;;9.27;;
12956;SDS011;6543;48.836;10.092;2022-12-07T00:16:23;10.70;;;9.20;;
12956;SDS011;6543;48.836;10.092;2022-12-07T00:18:51;10.27;;;9.17;;
12956;SDS011;6543;48.836;10.092;2022-12-07T00:21:19;10.67;;;9.60;;
12956;SDS011;6543;48.836;10.092;2022-12-07T00:23:47;11.83;;;9.50;;
12956;SDS011;6543;48.836;10.092;2022-12-07T00:26:18;11.00;;;9.90;;
12956;SDS011;6543;48.836;10.092;2022-12-07T00:28:47;10.80;;;9.70;;
12956;SDS011;6543;48.836;10.092;2022-12-07T00:31:15;11.00;;;9.90;;
12956;SDS011;6543;48.836;10.092;2022-12-07T00:33:43;11.77;;;9.57;;
12956;SDS011;6543;48.836;10.092;2022-12-07T00:36:11;10.30;;;9.03;;
12956;SDS011;6543;48.836;10.092;2022-12-07T00:38:39;10.97;;;8.57;;
12956;SDS011;6543;48.836;10.092;2022-12-07T00:41:08;10.73;;;9.60;;
12956;SDS011;6543;48.836;10.092;2022-12-07T00:43:38;9.40;;;8.40;;
12956;SDS011;6543;48.836;10.092;2022-12-07T00:46:06;11.10;;;9.90;;
12956;SDS011;6543;48.836;10.092;2022-12-07T00:48:33;10.17;;;8.93;;
12956;SDS011;6543;48.836;10.092;2022-12-07T00:51:00;10.33;;;9.03;;
12956;SDS011;6543;48.836;10.092;2022-12-07T00:53:27;10.70;;;9.60;;
12956;SDS011;6543;48.836;10.092;2022-12-07T00:55:54;9.83;;;8.83;;
12956;SDS011;6543;48.836;10.092;2022-12-07T00:58:21;10.90;;;9.80;;
12956;SDS011;6543;48.836;10.092;2022-12-07T01:00:50;11.73;;;10.53;;
12956;SDS011;6543;48.836;10.092;2022-12-07T01:03:17;10.47;;;9.43;;
12956;SDS011;6543;48.836;10.092;2022-12-07T01:05:50;11.13;;;9.30;;
12956;SDS011;6543;48.836;10.092;2022-12-07T01:08:17;10.47;;;9.10;;
12956;SDS011;6543;48.836;10.092;2022-12-07T01:10:45;9.53;;;8.50;;
12956;SDS011;6543;48.836;10.092;2022-12-07T01:13:11;10.77;;;9.67;;
12956;SDS011;6543;48.836;10.092;2022-12-07T01:15:39;9.37;;;8.47;;
12956;SDS011;6543;48.836;10.092;2022-12-07T01:18:07;10.83;;;9.37;;
12956;SDS011;6543;48.836;10.092;2022-12-07T01:20:34;9.90;;;8.90;;
12956;SDS011;6543;48.836;10.092;2022-12-07T01:23:02;9.70;;;8.70;;
12956;SDS011;6543;48.836;10.092;2022-12-07T01:25:30;9.93;;;8.37;;
12956;SDS011;6543;48.836;10.092;2022-12-07T01:27:56;10.20;;;8.07;;
12956;SDS011;6543;48.836;10.092;2022-12-07T01:30:23;9.57;;;8.57;;
12956;SDS011;6543;48.836;10.092;2022-12-07T01:32:50;10.20;;;9.10;;
12956;SDS011;6543;48.836;10.092;2022-12-07T01:35:18;10.43;;;8.90;;
12956;SDS011;6543;48.836;10.092;2022-12-07T01:37:45;11.63;;;9.10;;
12956;SDS011;6543;48.836;10.092;2022-12-07T01:40:12;10.33;;;9.27;;
12956;SDS011;6543;48.836;10.092;2022-12-07T01:42:39;10.47;;;9.43;;
12956;SDS011;6543;48.836;10.092;2022-12-07T01:48:09;10.57;;;9.47;;
12956;SDS011;6543;48.836;10.092;2022-12-07T01:50:41;11.17;;;9.03;;
12956;SDS011;6543;48.836;10.092;2022-12-07T01:53:09;10.23;;;9.23;;
12956;SDS011;6543;48.836;10.092;2022-12-07T01:55:37;10.80;;;9.70;;
12956;SDS011;6543;48.836;10.092;2022-12-07T01:58:08;11.07;;;9.97;;
12956;SDS011;6543;48.836;10.092;2022-12-07T02:00:36;11.40;;;9.57;;
12956;SDS011;6543;48.836;10.092;2022-12-07T02:03:04;11.20;;;9.50;;
12956;SDS011;6543;48.836;10.092;2022-12-07T02:05:35;11.00;;;9.80;;
12956;SDS011;6543;48.836;10.092;2022-12-07T02:08:05;11.30;;;10.10;;
12956;SDS011;6543;48.836;10.092;2022-12-07T02:10:33;10.97;;;9.80;;
12956;SDS011;6543;48.836;10.092;2022-12-07T02:13:01;11.77;;;10.30;;
12956;SDS011;6543;48.836;10.092;2022-12-07T02:15:33;11.30;;;10.07;;
12956;SDS011;6543;48.836;10.092;2022-12-07T02:18:07;11.77;;;10.27;;
12956;SDS011;6543;48.836;10.092;2022-12-07T02:20:38;11.77;;;10.50;;
12956;SDS011;6543;48.836;10.092;2022-12-07T02:23:30;11.07;;;9.87;;
12956;SDS011;6543;48.836;10.092;2022-12-07T02:26:31;11.63;;;10.43;;
12956;SDS011;6543;48.836;10.092;2022-12-07T02:29:30;11.20;;;9.97;;
12956;SDS011;6543;48.836;10.092;2022-12-07T02:32:02;11.70;;;10.13;;
12956;SDS011;6543;48.836;10.092;2022-12-07T02:34:37;11.03;;;9.87;;
12956;SDS011;6543;48.836;10.092;2022-12-07T02:37:12;11.87;;;10.20;;
12956;SDS011;6543;48.836;10.092;2022-12-07T02:39:48;11.37;;;9.57;;
12956;SDS011;6543;48.836;10.092;2022-12-07T02:42:21;11.83;;;10.50;;
12956;SDS011;6543;48.836;10.092;2022-12-07T02:44:54;11.70;;;10.50;;
12956;SDS011;6543;48.836;10.092;2022-12-07T02:47:21;11.97;;;10.27;;
12956;SDS011;6543;48.836;10.092;2022-12-07T02:49:49;11.83;;;10.47;;
12956;SDS011;6543;48.836;10.092;2022-12-07T02:52:17;11.83;;;10.63;;
12956;SDS011;6543;48.836;10.092;2022-12-07T02:54:44;13.10;;;10.97;;
12956;SDS011;6543;48.836;10.092;2022-12-07T02:57:14;12.77;;;11.00;;
12956;SDS011;6543;48.836;10.092;2022-12-07T03:00:00;12.97;;;10.87;;
12956;SDS011;6543;48.836;10.092;2022-12-07T03:02:32;13.80;;;11.70;;
12956;SDS011;6543;48.836;10.092;2022-12-07T03:05:11;12.83;;;10.83;;
12956;SDS011;6543;48.836;10.092;2022-12-07T03:07:55;12.50;;;11.20;;
12956;SDS011;6543;48.836;10.092;2022-12-07T03:10:27;14.13;;;11.57;;
12956;SDS011;6543;48.836;10.092;2022-12-07T03:13:07;12.77;;;11.33;;
12956;SDS011;6543;48.836;10.092;2022-12-07T03:15:41;14.70;;;12.67;;
12956;SDS011;6543;48.836;10.092;2022-12-07T03:18:13;14.17;;;12.50;;
12956;SDS011;6543;48.836;10.092;2022-12-07T03:20:44;12.97;;;11.57;;
12956;SDS011;6543;48.836;10.092;2022-12-07T03:23:14;14.53;;;12.07;;
12956;SDS011;6543;48.836;10.092;2022-12-07T03:25:44;14.27;;;11.70;;
12956;SDS011;6543;48.836;10.092;2022-12-07T03:28:13;13.50;;;11.70;;
12956;SDS011;6543;48.836;10.092;2022-12-07T03:30:46;14.57;;;12.57;;
12956;SDS011;6543;48.836;10.092;2022-12-07T03:33:19;14.80;;;12.57;;
12956;SDS011;6543;48.836;10.092;2022-12-07T03:35:51;14.30;;;12.40;;
12956;SDS011;6543;48.836;10.092;2022-12-07T03:38:23;13.53;;;12.13;;
12956;SDS011;6543;48.836;10.092;2022-12-07T03:40:57;12.93;;;11.53;;
12956;SDS011;6543;48.836;10.092;2022-12-07T03:43:27;14.03;;;12.47;;
12956;SDS011;6543;48.836;10.092;2022-12-07T03:45:58;15.90;;;12.77;;
12956;SDS011;6543;48.836;10.092;2022-12-07T03:48:32;15.20;;;13.27;;
12956;SDS011;6543;48.836;10.092;2022-12-07T03:51:06;17.20;;;12.47;;
12956;SDS011;6543;48.836;10.092;2022-12-07T03:53:39;15.07;;;12.60;;
12956;SDS011;6543;48.836;10.092;2022-12-07T03:56:10;17.07;;;13.00;;
12956;SDS011;6543;48.836;10.092;2022-12-07T03:58:38;14.53;;;12.63;;
12956;SDS011;6543;48.836;10.092;2022-12-07T04:01:07;13.30;;;11.77;;
12956;SDS011;6543;48.836;10.092;2022-12-07T04:03:34;14.97;;;13.00;;
12956;SDS011;6543;48.836;10.092;2022-12-07T04:06:01;17.20;;;13.47;;
12956;SDS011;6543;48.836;10.092;2022-12-07T04:08:28;18.23;;;13.00;;
12956;SDS011;6543;48.836;10.092;2022-12-07T04:10:55;15.87;;;12.57;;
12956;SDS011;6543;48.836;10.092;2022-12-07T04:13:22;16.57;;;13.20;;
12956;SDS011;6543;48.836;10.092;2022-12-07T04:15:48;13.63;;;12.23;;
12956;SDS011;6543;48.836;10.092;2022-12-07T04:18:17;14.63;;;13.13;;
12956;SDS011;6543;48.836;10.092;2022-12-07T04:20:43;15.40;;;13.40;;
12956;SDS011;6543;48.836;10.092;2022-12-07T04:23:12;17.87;;;13.43;;
12956;SDS011;6543;48.836;10.092;2022-12-07T04:25:38;16.03;;;13.63;;
12956;SDS011;6543;48.836;10.092;2022-12-07T04:28:06;14.53;;;12.97;;
12956;SDS011;6543;48.836;10.092;2022-12-07T04:30:33;15.37;;;12.83;;
12956;SDS011;6543;48.836;10.092;2022-12-07T04:33:00;15.13;;;13.07;;
12956;SDS011;6543;48.836;10.092;2022-12-07T04:35:28;17.87;;;13.43;;
12956;SDS011;6543;48.836;10.092;2022-12-07T04:37:55;14.87;;;13.10;;
12956;SDS011;6543;48.836;10.092;2022-12-07T04:40:21;16.17;;;13.80;;
12956;SDS011;6543;48.836;10.092;2022-12-07T04:42:48;19.10;;;14.20;;
12956;SDS011;6543;48.836;10.092;2022-12-07T04:45:15;18.80;;;13.93;;
12956;SDS011;6543;48.836;10.092;2022-12-07T04:47:42;18.97;;;14.87;;
12956;SDS011;6543;48.836;10.092;2022-12-07T04:50:09;20.47;;;14.77;;
12956;SDS011;6543;48.836;10.092;2022-12-07T04:52:38;17.67;;;14.87;;
12956;SDS011;6543;48.836;10.092;2022-12-07T04:55:04;18.10;;;14.63;;
12956;SDS011;6543;48.836;10.092;2022-12-07T04:57:32;18.30;;;14.07;;
12956;SDS011;6543;48.836;10.092;2022-12-07T04:59:58;19.20;;;14.63;;
12956;SDS011;6543;48.836;10.092;2022-12-07T05:02:25;22.47;;;13.77;;
12956;SDS011;6543;48.836;10.092;2022-12-07T05:04:52;15.63;;;13.43;;
12956;SDS011;6543;48.836;10.092;2022-12-07T05:07:19;14.43;;;12.17;;
12956;SDS011;6543;48.836;10.092;2022-12-07T05:09:47;14.37;;;12.87;;
12956;SDS011;6543;48.836;10.092;2022-12-07T05:12:14;14.00;;;12.23;;
12956;SDS011;6543;48.836;10.092;2022-12-07T05:14:41;13.30;;;11.70;;
12956;SDS011;6543;48.836;10.092;2022-12-07T05:17:07;17.30;;;13.30;;
12956;SDS011;6543;48.836;10.092;2022-12-07T05:19:36;19.53;;;13.53;;
12956;SDS011;6543;48.836;10.092;2022-12-07T05:22:03;14.83;;;12.07;;
12956;SDS011;6543;48.836;10.092;2022-12-07T05:24:30;12.90;;;11.50;;
12956;SDS011;6543;48.836;10.092;2022-12-07T05:26:58;18.67;;;11.27;;
12956;SDS011;6543;48.836;10.092;2022-12-07T05:29:25;13.53;;;11.13;;
12956;SDS011;6543;48.836;10.092;2022-12-07T05:31:51;21.17;;;12.37;;
12956;SDS011;6543;48.836;10.092;2022-12-07T05:34:18;13.30;;;11.03;;
12956;SDS011;6543;48.836;10.092;2022-12-07T05:36:45;13.00;;;11.10;;
12956;SDS011;6543;48.836;10.092;2022-12-07T05:39:12;12.27;;;10.93;;
12956;SDS011;6543;48.836;10.092;2022-12-07T05:41:39;13.20;;;9.23;;
12956;SDS011;6543;48.836;10.092;2022-12-07T05:44:25;13.00;;;10.00;;
12956;SDS011;6543;48.836;10.092;2022-12-07T05:46:52;15.13;;;11.07;;
12956;SDS011;6543;48.836;10.092;2022-12-07T05:49:18;13.83;;;11.07;;
12956;SDS011;6543;48.836;10.092;2022-12-07T05:51:45;16.47;;;10.83;;
12956;SDS011;6543;48.836;10.092;2022-12-07T05:54:12;12.93;;;10.93;;
12956;SDS011;6543;48.836;10.092;2022-12-07T05:56:39;12.00;;;10.17;;
12956;SDS011;6543;48.836;10.092;2022-12-07T05:59:06;11.53;;;10.33;;
12956;SDS011;6543;48.836;10.092;2022-12-07T06:01:50;12.17;;;10.40;;
12956;SDS011;6543;48.836;10.092;2022-12-07T06:04:19;13.93;;;11.53;;
12956;SDS011;6543;48.836;10.092;2022-12-07T06:06:46;14.57;;;11.80;;
12956;SDS011;6543;48.836;10.092;2022-12-07T06:09:13;15.77;;;11.80;;
12956;SDS011;6543;48.836;10.092;2022-12-07T06:11:40;13.83;;;10.97;;
12956;SDS011;6543;48.836;10.092;2022-12-07T06:14:27;15.37;;;12.03;;
12956;SDS011;6543;48.836;10.092;2022-12-07T06:16:55;17.50;;;12.40;;
12956;SDS011;6543;48.836;10.092;2022-12-07T06:19:22;14.47;;;11.77;;
12956;SDS011;6543;48.836;10.092;2022-12-07T06:21:48;15.30;;;12.27;;
12956;SDS011;6543;48.836;10.092;2022-12-07T06:24:16;20.27;;;12.93;;
12956;SDS011;6543;48.836;10.092;2022-12-07T06:26:43;16.37;;;12.33;;
12956;SDS011;6543;48.836;10.092;2022-12-07T06:29:11;17.07;;;12.03;;
12956;SDS011;6543;48.836;10.092;2022-12-07T06:31:38;16.90;;;12.60;;
12956;SDS011;6543;48.836;10.092;2022-12-07T06:34:08;19.70;;;14.27;;
12956;SDS011;6543;48.836;10.092;2022-12-07T06:36:36;17.10;;;14.07;;
12956;SDS011;6543;48.836;10.092;2022-12-07T06:39:03;17.57;;;13.63;;
12956;SDS011;6543;48.836;10.092;2022-12-07T06:41:31;18.77;;;14.37;;
12956;SDS011;6543;48.836;10.092;2022-12-07T06:43:58;17.67;;;14.23;;
12956;SDS011;6543;48.836;10.092;2022-12-07T06:46:25;17.43;;;12.57;;
12956;SDS011;6543;48.836;10.092;2022-12-07T06:48:52;23.70;;;15.27;;
12956;SDS011;6543;48.836;10.092;2022-12-07T06:51:20;18.20;;;14.33;;
12956;SDS011;6543;48.836;10.092;2022-12-07T06:53:47;21.80;;;16.07;;
12956;SDS011;6543;48.836;10.092;2022-12-07T06:56:14;18.53;;;14.73;;
12956;SDS011;6543;48.836;10.092;2022-12-07T06:58:41;23.87;;;15.50;;
12956;SDS011;6543;48.836;10.092;2022-12-07T07:01:09;28.63;;;16.37;;
12956;SDS011;6543;48.836;10.092;2022-12-07T07:03:37;20.60;;;15.03;;
12956;SDS011;6543;48.836;10.092;2022-12-07T07:06:04;19.47;;;14.10;;
12956;SDS011;6543;48.836;10.092;2022-12-07T07:08:33;17.83;;;13.77;;
12956;SDS011;6543;48.836;10.092;2022-12-07T07:11:00;24.83;;;15.70;;
12956;SDS011;6543;48.836;10.092;2022-12-07T07:13:27;22.77;;;14.57;;
12956;SDS011;6543;48.836;10.092;2022-12-07T07:15:54;19.07;;;14.50;;
12956;SDS011;6543;48.836;10.092;2022-12-07T07:18:21;16.70;;;13.90;;
12956;SDS011;6543;48.836;10.092;2022-12-07T07:20:49;18.27;;;14.93;;
12956;SDS011;6543;48.836;10.092;2022-12-07T07:23:16;20.20;;;15.53;;
12956;SDS011;6543;48.836;10.092;2022-12-07T07:25:45;17.23;;;13.53;;
12956;SDS011;6543;48.836;10.092;2022-12-07T07:28:12;18.40;;;13.80;;
12956;SDS011;6543;48.836;10.092;2022-12-07T07:30:39;21.87;;;15.40;;
12956;SDS011;6543;48.836;10.092;2022-12-07T07:33:06;19.70;;;14.13;;
12956;SDS011;6543;48.836;10.092;2022-12-07T07:35:33;23.87;;;15.57;;
12956;SDS011;6543;48.836;10.092;2022-12-07T07:38:00;27.47;;;16.60;;
12956;SDS011;6543;48.836;10.092;2022-12-07T07:40:28;20.20;;;15.70;;
12956;SDS011;6543;48.836;10.092;2022-12-07T07:42:57;19.23;;;15.00;;
12956;SDS011;6543;48.836;10.092;2022-12-07T07:45:25;23.37;;;15.63;;
12956;SDS011;6543;48.836;10.092;2022-12-07T07:47:53;24.03;;;16.93;;
12956;SDS011;6543;48.836;10.092;2022-12-07T07:50:20;31.40;;;17.50;;
12956;SDS011;6543;48.836;10.092;2022-12-07T07:52:47;20.13;;;14.00;;
12956;SDS011;6543;48.836;10.092;2022-12-07T07:55:14;24.63;;;14.93;;
12956;SDS011;6543;48.836;10.092;2022-12-07T07:57:41;18.83;;;13.83;;
12956;SDS011;6543;48.836;10.092;2022-12-07T08:00:11;18.03;;;14.07;;
12956;SDS011;6543;48.836;10.092;2022-12-07T08:02:39;18.10;;;13.60;;
12956;SDS011;6543;48.836;10.092;2022-12-07T08:05:08;16.87;;;13.23;;
12956;SDS011;6543;48.836;10.092;2022-12-07T08:07:35;16.20;;;12.53;;
12956;SDS011;6543;48.836;10.092;2022-12-07T08:10:03;19.07;;;13.17;;
12956;SDS011;6543;48.836;10.092;2022-12-07T08:12:31;13.33;;;11.60;;
12956;SDS011;6543;48.836;10.092;2022-12-07T08:15:02;14.93;;;12.43;;
12956;SDS011;6543;48.836;10.092;2022-12-07T08:17:30;18.33;;;13.33;;
12956;SDS011;6543;48.836;10.092;2022-12-07T08:19:57;18.37;;;12.97;;
12956;SDS011;6543;48.836;10.092;2022-12-07T08:22:24;17.03;;;11.93;;
12956;SDS011;6543;48.836;10.092;2022-12-07T08:24:51;15.97;;;12.53;;
12956;SDS011;6543;48.836;10.092;2022-12-07T08:27:18;20.00;;;13.87;;
12956;SDS011;6543;48.836;10.092;2022-12-07T08:29:44;19.63;;;14.10;;
12956;SDS011;6543;48.836;10.092;2022-12-07T08:32:11;18.67;;;14.03;;
12956;SDS011;6543;48.836;10.092;2022-12-07T08:34:39;20.97;;;13.83;;
12956;SDS011;6543;48.836;10.092;2022-12-07T08:37:06;19.27;;;13.23;;
12956;SDS011;6543;48.836;10.092;2022-12-07T08:39:33;17.23;;;11.90;;
12956;SDS011;6543;48.836;10.092;2022-12-07T08:42:00;15.77;;;12.13;;
12956;SDS011;6543;48.836;10.092;2022-12-07T08:44:27;14.77;;;11.37;;
12956;SDS011;6543;48.836;10.092;2022-12-07T08:46:55;13.10;;;9.57;;
12956;SDS011;6543;48.836;10.092;2022-12-07T08:49:26;9.93;;;7.93;;
12956;SDS011;6543;48.836;10.092;2022-12-07T08:51:58;9.77;;;6.40;;
12956;SDS011;6543;48.836;10.092;2022-12-07T08:54:25;9.97;;;7.83;;
12956;SDS011;6543;48.836;10.092;2022-12-07T08:56:52;12.33;;;7.57;;
12956;SDS011;6543;48.836;10.092;2022-12-07T08:59:21;7.23;;;5.80;;
12956;SDS011;6543;48.836;10.092;2022-12-07T09:01:48;8.13;;;6.70;;
12956;SDS011;6543;48.836;10.092;2022-12-07T09:04:15;8.27;;;6.43;;
12956;SDS011;6543;48.836;10.092;2022-12-07T09:06:42;7.90;;;5.80;;
12956;SDS011;6543;48.836;10.092;2022-12-07T09:09:10;7.13;;;6.40;;
12956;SDS011;6543;48.836;10.092;2022-12-07T09:11:39;10.90;;;6.30;;
12956;SDS011;6543;48.836;10.092;2022-12-07T09:14:06;9.67;;;6.30;;
12956;SDS011;6543;48.836;10.092;2022-12-07T09:16:32;11.23;;;6.50;;
12956;SDS011;6543;48.836;10.092;2022-12-07T09:18:59;6.50;;;5.57;;
12956;SDS011;6543;48.836;10.092;2022-12-07T09:21:26;7.13;;;5.43;;
12956;SDS011;6543;48.836;10.092;2022-12-07T09:23:53;6.70;;;4.60;;
12956;SDS011;6543;48.836;10.092;2022-12-07T09:26:21;7.03;;;5.60;;
12956;SDS011;6543;48.836;10.092;2022-12-07T09:28:48;8.37;;;5.87;;
12956;SDS011;6543;48.836;10.092;2022-12-07T09:31:15;10.03;;;5.97;;
12956;SDS011;6543;48.836;10.092;2022-12-07T09:33:42;11.30;;;4.63;;
12956;SDS011;6543;48.836;10.092;2022-12-07T09:36:09;7.97;;;4.67;;
12956;SDS011;6543;48.836;10.092;2022-12-07T09:38:36;5.80;;;5.07;;
12956;SDS011;6543;48.836;10.092;2022-12-07T09:41:06;9.37;;;7.03;;
12956;SDS011;6543;48.836;10.092;2022-12-07T09:43:35;10.77;;;7.43;;
12956;SDS011;6543;48.836;10.092;2022-12-07T09:46:04;10.30;;;7.30;;
12956;SDS011;6543;48.836;10.092;2022-12-07T09:48:32;7.03;;;6.10;;
12956;SDS011;6543;48.836;10.092;2022-12-07T09:51:02;6.87;;;5.53;;
12956;SDS011;6543;48.836;10.092;2022-12-07T09:53:39;6.63;;;5.93;;
12956;SDS011;6543;48.836;10.092;2022-12-07T09:56:08;7.43;;;5.63;;
12956;SDS011;6543;48.836;10.092;2022-12-07T09:58:39;6.80;;;5.50;;
12956;SDS011;6543;48.836;10.092;2022-12-07T10:01:09;7.90;;;5.30;;
12956;SDS011;6543;48.836;10.092;2022-12-07T10:03:39;8.33;;;5.83;;
12956;SDS011;6543;48.836;10.092;2022-12-07T10:06:09;8.97;;;5.37;;
12956;SDS011;6543;48.836;10.092;2022-12-07T10:08:38;10.23;;;7.00;;
12956;SDS011;6543;48.836;10.092;2022-12-07T10:11:06;9.67;;;6.73;;
12956;SDS011;6543;48.836;10.092;2022-12-07T10:13:36;8.57;;;6.57;;
12956;SDS011;6543;48.836;10.092;2022-12-07T10:16:05;8.03;;;4.70;;
12956;SDS011;6543;48.836;10.092;2022-12-07T10:18:53;7.07;;;5.90;;
12956;SDS011;6543;48.836;10.092;2022-12-07T10:21:21;5.67;;;4.80;;
12956;SDS011;6543;48.836;10.092;2022-12-07T10:24:01;8.63;;;5.50;;
12956;SDS011;6543;48.836;10.092;2022-12-07T10:26:30;7.73;;;5.00;;
12956;SDS011;6543;48.836;10.092;2022-12-07T10:28:59;9.30;;;4.87;;
12956;SDS011;6543;48.836;10.092;2022-12-07T10:31:29;9.03;;;5.03;;
12956;SDS011;6543;48.836;10.092;2022-12-07T10:33:57;8.25;;;7.10;;
12956;SDS011;6543;48.836;10.092;2022-12-07T10:36:27;5.00;;;4.50;;
12956;SDS011;6543;48.836;10.092;2022-12-07T10:39:02;6.80;;;5.53;;
12956;SDS011;6543;48.836;10.092;2022-12-07T10:41:38;8.87;;;6.73;;
12956;SDS011;6543;48.836;10.092;2022-12-07T10:44:20;8.67;;;6.60;;
12956;SDS011;6543;48.836;10.092;2022-12-07T10:47:02;8.97;;;6.47;;
12956;SDS011;6543;48.836;10.092;2022-12-07T10:49:59;10.73;;;6.27;;
12956;SDS011;6543;48.836;10.092;2022-12-07T10:52:50;9.13;;;5.83;;
12956;SDS011;6543;48.836;10.092;2022-12-07T10:55:35;9.67;;;6.63;;
12956;SDS011;6543;48.836;10.092;2022-12-07T10:58:23;7.47;;;5.27;;
12956;SDS011;6543;48.836;10.092;2022-12-07T11:00:59;10.00;;;6.73;;
12956;SDS011;6543;48.836;10.092;2022-12-07T11:03:39;11.07;;;7.23;;
12956;SDS011;6543;48.836;10.092;2022-12-07T11:06:18;11.70;;;6.37;;
12956;SDS011;6543;48.836;10.092;2022-12-07T11:08:57;9.67;;;6.30;;
12956;SDS011;6543;48.836;10.092;2022-12-07T11:11:33;10.37;;;6.40;;
12956;SDS011;6543;48.836;10.092;2022-12-07T11:14:03;7.77;;;6.63;;
12956;SDS011;6543;48.836;10.092;2022-12-07T11:16:43;10.10;;;7.07;;
12956;SDS011;6543;48.836;10.092;2022-12-07T11:19:34;8.03;;;5.73;;
12956;SDS011;6543;48.836;10.092;2022-12-07T11:22:17;11.60;;;8.60;;
12956;SDS011;6543;48.836;10.092;2022-12-07T11:24:50;9.17;;;5.90;;
12956;SDS011;6543;48.836;10.092;2022-12-07T11:27:26;10.30;;;6.53;;
12956;SDS011;6543;48.836;10.092;2022-12-07T11:30:03;9.33;;;6.53;;
12956;SDS011;6543;48.836;10.092;2022-12-07T11:32:44;10.60;;;6.40;;
12956;SDS011;6543;48.836;10.092;2022-12-07T11:35:33;7.50;;;6.40;;
12956;SDS011;6543;48.836;10.092;2022-12-07T11:38:08;13.07;;;6.80;;
12956;SDS011;6543;48.836;10.092;2022-12-07T11:40:39;8.23;;;6.47;;
12956;SDS011;6543;48.836;10.092;2022-12-07T11:43:12;7.63;;;5.90;;
12956;SDS011;6543;48.836;10.092;2022-12-07T11:45:44;9.37;;;6.83;;
12956;SDS011;6543;48.836;10.092;2022-12-07T11:48:14;10.93;;;6.90;;
12956;SDS011;6543;48.836;10.092;2022-12-07T11:50:50;11.40;;;7.13;;
12956;SDS011;6543;48.836;10.092;2022-12-07T11:53:21;10.67;;;7.80;;
12956;SDS011;6543;48.836;10.092;2022-12-07T11:55:55;16.50;;;10.23;;
12956;SDS011;6543;48.836;10.092;2022-12-07T11:58:41;17.20;;;7.60;;
12956;SDS011;6543;48.836;10.092;2022-12-07T12:01:16;7.77;;;5.97;;
12956;SDS011;6543;48.836;10.092;2022-12-07T12:03:53;12.47;;;7.33;;
12956;SDS011;6543;48.836;10.092;2022-12-07T12:06:28;11.50;;;6.70;;
12956;SDS011;6543;48.836;10.092;2022-12-07T12:08:58;10.20;;;6.43;;
12956;SDS011;6543;48.836;10.092;2022-12-07T12:11:35;8.67;;;6.10;;
12956;SDS011;6543;48.836;10.092;2022-12-07T12:14:19;14.00;;;7.30;;
12956;SDS011;6543;48.836;10.092;2022-12-07T12:17:17;9.60;;;6.43;;
12956;SDS011;6543;48.836;10.092;2022-12-07T12:20:07;10.50;;;6.80;;
12956;SDS011;6543;48.836;10.092;2022-12-07T12:22:47;5.90;;;4.57;;
12956;SDS011;6543;48.836;10.092;2022-12-07T12:25:20;7.97;;;6.53;;
12956;SDS011;6543;48.836;10.092;2022-12-07T12:27:49;16.83;;;7.07;;
12956;SDS011;6543;48.836;10.092;2022-12-07T12:30:26;8.90;;;6.47;;
12956;SDS011;6543;48.836;10.092;2022-12-07T12:33:01;7.47;;;6.33;;
12956;SDS011;6543;48.836;10.092;2022-12-07T12:35:31;25.87;;;9.37;;
12956;SDS011;6543;48.836;10.092;2022-12-07T12:40:55;9.23;;;6.60;;
12956;SDS011;6543;48.836;10.092;2022-12-07T12:46:35;8.13;;;6.17;;
12956;SDS011;6543;48.836;10.092;2022-12-07T12:49:14;8.03;;;6.70;;
12956;SDS011;6543;48.836;10.092;2022-12-07T12:55:16;8.93;;;6.13;;
12956;SDS011;6543;48.836;10.092;2022-12-07T12:58:22;12.23;;;6.90;;
12956;SDS011;6543;48.836;10.092;2022-12-07T13:04:14;7.40;;;6.43;;
12956;SDS011;6543;48.836;10.092;2022-12-07T13:06:58;7.77;;;5.90;;
12956;SDS011;6543;48.836;10.092;2022-12-07T13:09:25;7.03;;;5.40;;
12956;SDS011;6543;48.836;10.092;2022-12-07T13:12:00;10.90;;;6.03;;
12956;SDS011;6543;48.836;10.092;2022-12-07T13:20:48;10.90;;;6.07;;
12956;SDS011;6543;48.836;10.092;2022-12-07T13:23:18;6.80;;;5.20;;
12956;SDS011;6543;48.836;10.092;2022-12-07T13:28:41;8.67;;;4.90;;
12956;SDS011;6543;48.836;10.092;2022-12-07T13:31:19;7.97;;;5.27;;
12956;SDS011;6543;48.836;10.092;2022-12-07T13:33:53;13.43;;;7.70;;
12956;SDS011;6543;48.836;10.092;2022-12-07T13:36:21;8.47;;;5.77;;
12956;SDS011;6543;48.836;10.092;2022-12-07T13:38:54;6.27;;;5.43;;
12956;SDS011;6543;48.836;10.092;2022-12-07T13:41:28;8.33;;;5.83;;
12956;SDS011;6543;48.836;10.092;2022-12-07T13:44:00;8.53;;;5.40;;
12956;SDS011;6543;48.836;10.092;2022-12-07T13:46:35;8.20;;;5.37;;
12956;SDS011;6543;48.836;10.092;2022-12-07T13:49:21;6.83;;;5.73;;
12956;SDS011;6543;48.836;10.092;2022-12-07T13:51:49;9.03;;;5.83;;
12956;SDS011;6543;48.836;10.092;2022-12-07T13:54:16;8.40;;;5.60;;
12956;SDS011;6543;48.836;10.092;2022-12-07T13:56:47;6.30;;;5.57;;
12956;SDS011;6543;48.836;10.092;2022-12-07T13:59:18;8.23;;;5.67;;
12956;SDS011;6543;48.836;10.092;2022-12-07T14:01:47;8.57;;;6.03;;
12956;SDS011;6543;48.836;10.092;2022-12-07T14:04:19;8.73;;;5.83;;
12956;SDS011;6543;48.836;10.092;2022-12-07T14:06:57;10.00;;;7.27;;
12956;SDS011;6543;48.836;10.092;2022-12-07T14:09:26;16.40;;;7.20;;
12956;SDS011;6543;48.836;10.092;2022-12-07T14:11:54;12.63;;;7.00;;
12956;SDS011;6543;48.836;10.092;2022-12-07T14:14:24;13.37;;;6.80;;
12956;SDS011;6543;48.836;10.092;2022-12-07T14:16:58;12.37;;;6.40;;
12956;SDS011;6543;48.836;10.092;2022-12-07T14:19:43;10.17;;;6.23;;
12956;SDS011;6543;48.836;10.092;2022-12-07T14:25:01;10.17;;;5.67;;
12956;SDS011;6543;48.836;10.092;2022-12-07T14:27:50;9.47;;;6.53;;
12956;SDS011;6543;48.836;10.092;2022-12-07T14:30:24;13.73;;;6.20;;
12956;SDS011;6543;48.836;10.092;2022-12-07T14:32:53;12.97;;;6.53;;
12956;SDS011;6543;48.836;10.092;2022-12-07T14:35:23;18.53;;;6.77;;
12956;SDS011;6543;48.836;10.092;2022-12-07T14:37:50;8.97;;;6.43;;
12956;SDS011;6543;48.836;10.092;2022-12-07T14:40:18;14.20;;;6.53;;
12956;SDS011;6543;48.836;10.092;2022-12-07T14:42:47;9.60;;;6.87;;
12956;SDS011;6543;48.836;10.092;2022-12-07T14:45:17;12.10;;;6.73;;
12956;SDS011;6543;48.836;10.092;2022-12-07T14:47:47;8.07;;;5.83;;
12956;SDS011;6543;48.836;10.092;2022-12-07T14:50:15;8.73;;;6.47;;
12956;SDS011;6543;48.836;10.092;2022-12-07T14:52:45;9.23;;;5.07;;
12956;SDS011;6543;48.836;10.092;2022-12-07T14:55:16;8.13;;;5.57;;
12956;SDS011;6543;48.836;10.092;2022-12-07T14:57:48;7.63;;;5.50;;
12956;SDS011;6543;48.836;10.092;2022-12-07T15:00:16;6.97;;;5.63;;
12956;SDS011;6543;48.836;10.092;2022-12-07T15:02:44;12.10;;;6.13;;
12956;SDS011;6543;48.836;10.092;2022-12-07T15:05:13;9.30;;;6.27;;
12956;SDS011;6543;48.836;10.092;2022-12-07T15:07:40;8.40;;;5.57;;
12956;SDS011;6543;48.836;10.092;2022-12-07T15:10:11;13.23;;;8.13;;
12956;SDS011;6543;48.836;10.092;2022-12-07T15:12:41;9.90;;;7.20;;
12956;SDS011;6543;48.836;10.092;2022-12-07T15:15:08;10.50;;;7.60;;
12956;SDS011;6543;48.836;10.092;2022-12-07T15:17:35;8.67;;;6.40;;
12956;SDS011;6543;48.836;10.092;2022-12-07T15:20:02;8.53;;;6.83;;
12956;SDS011;6543;48.836;10.092;2022-12-07T15:22:32;12.27;;;7.77;;